createdAt,value
2022-12-04T00:00:58.193Z,100627.31
2022-12-04T00:03:46.831Z,100620.75
2022-12-04T00:06:35.801Z,100626.94
2022-12-04T00:09:24.512Z,100631.63
2022-12-04T00:12:13.328Z,100631.00
2022-12-04T00:18:11.917Z,100631.34
2022-12-04T00:21:00.548Z,100631.72
2022-12-04T00:23:49.501Z,100623.09
2022-12-04T00:26:38.314Z,100623.47
2022-12-04T00:29:26.941Z,100627.13
2022-12-04T00:32:16.903Z,100627.13
2022-12-04T00:35:05.888Z,100618.13
2022-12-04T00:37:54.525Z,100618.75
2022-12-04T00:40:50.924Z,100617.75
2022-12-04T00:43:39.702Z,100624.28
2022-12-04T00:46:28.411Z,100620.31
2022-12-04T00:49:18.406Z,100617.66
2022-12-04T00:52:07.062Z,100613.53
2022-12-04T00:54:55.695Z,100617.75
2022-12-04T00:57:44.323Z,100616.81
2022-12-04T01:00:33.219Z,100612.81
2022-12-04T01:03:21.901Z,100616.28
2022-12-04T01:06:19.713Z,100614.78
2022-12-04T01:09:08.386Z,100608.66
2022-12-04T01:11:57.026Z,100601.94
2022-12-04T01:14:45.610Z,100600.50
2022-12-04T01:17:34.284Z,100595.59
2022-12-04T01:20:22.888Z,100606.63
2022-12-04T01:23:12.883Z,100602.16
2022-12-04T01:26:01.504Z,100595.16
2022-12-04T01:28:50.127Z,100594.03
2022-12-04T01:31:38.769Z,100601.22
2022-12-04T01:34:27.410Z,100597.72
2022-12-04T01:37:16.058Z,100599.75
2022-12-04T01:40:07.477Z,100589.72
2022-12-04T01:42:56.057Z,100581.34
2022-12-04T01:45:45.331Z,100579.59
2022-12-04T01:48:35.731Z,100575.13
2022-12-04T01:51:26.957Z,100564.72
2022-12-04T01:54:19.401Z,100553.53
2022-12-04T01:57:13.175Z,100565.28
2022-12-04T02:00:05.067Z,100554.81
2022-12-04T02:02:53.655Z,100546.19
2022-12-04T02:05:42.359Z,100544.41
2022-12-04T02:08:33.736Z,100543.31
2022-12-04T02:11:29.291Z,100547.56
2022-12-04T02:14:24.772Z,100544.88
2022-12-04T02:17:19.832Z,100540.56
2022-12-04T02:20:23.146Z,100537.41
2022-12-04T02:23:55.952Z,100542.94
2022-12-04T02:26:49.833Z,100547.25
2022-12-04T02:29:45.229Z,100538.63
2022-12-04T02:32:38.690Z,100536.91
2022-12-04T02:35:29.566Z,100538.25
2022-12-04T02:38:24.652Z,100538.94
2022-12-04T02:41:17.913Z,100532.78
2022-12-04T02:44:11.079Z,100526.97
2022-12-04T02:47:03.069Z,100531.56
2022-12-04T02:49:55.360Z,100539.44
2022-12-04T02:52:47.932Z,100545.41
2022-12-04T02:55:39.632Z,100545.25
2022-12-04T02:58:31.463Z,100539.78
2022-12-04T03:01:24.477Z,100532.78
2022-12-04T03:04:17.878Z,100535.59
2022-12-04T03:07:09.021Z,100535.25
2022-12-04T03:09:59.669Z,100524.03
2022-12-04T03:12:51.096Z,100529.25
2022-12-04T03:15:42.726Z,100521.63
2022-12-04T03:18:34.780Z,100516.09
2022-12-04T03:21:27.976Z,100522.84
2022-12-04T03:24:20.953Z,100524.94
2022-12-04T03:27:14.653Z,100528.28
2022-12-04T03:30:06.200Z,100525.59
2022-12-04T03:32:58.630Z,100531.28
2022-12-04T03:35:49.365Z,100524.09
2022-12-04T03:38:42.993Z,100524.59
2022-12-04T03:41:34.894Z,100522.56
2022-12-04T03:44:25.719Z,100528.91
2022-12-04T03:47:17.832Z,100526.25
2022-12-04T03:50:10.171Z,100532.41
2022-12-04T03:53:03.673Z,100535.53
2022-12-04T03:55:57.714Z,100532.88
2022-12-04T03:58:50.880Z,100542.50
2022-12-04T04:01:42.246Z,100538.84
2022-12-04T04:04:35.445Z,100529.19
2022-12-04T04:07:31.850Z,100536.56
2022-12-04T04:10:26.408Z,100536.16
2022-12-04T04:13:36.947Z,100537.19
2022-12-04T04:16:46.555Z,100540.88
2022-12-04T04:19:54.801Z,100534.88
2022-12-04T04:23:02.211Z,100535.34
2022-12-04T04:25:51.523Z,100538.19
2022-12-04T04:28:42.952Z,100536.91
2022-12-04T04:31:35.735Z,100535.25
2022-12-04T04:34:29.948Z,100540.56
2022-12-04T04:37:27.980Z,100544.25
2022-12-04T04:40:22.517Z,100538.56
2022-12-04T04:43:14.904Z,100540.94
2022-12-04T04:46:07.792Z,100537.25
2022-12-04T04:48:59.180Z,100532.94
2022-12-04T04:51:48.368Z,100535.59
2022-12-04T04:54:37.626Z,100533.22
2022-12-04T04:57:31.404Z,100534.53
2022-12-04T05:00:21.908Z,100527.47
2022-12-04T05:03:12.427Z,100526.59
2022-12-04T05:06:01.389Z,100521.44
2022-12-04T05:08:50.071Z,100520.91
2022-12-04T05:11:38.695Z,100525.44
2022-12-04T05:14:27.478Z,100523.41
2022-12-04T05:17:16.450Z,100522.22
2022-12-04T05:20:07.675Z,100518.88
2022-12-04T05:22:56.230Z,100520.91
2022-12-04T05:25:45.009Z,100525.22
2022-12-04T05:28:33.601Z,100527.47
2022-12-04T05:31:22.205Z,100516.94
2022-12-04T05:34:10.796Z,100517.97
2022-12-04T05:37:00.885Z,100511.63
2022-12-04T05:39:49.684Z,100513.13
2022-12-04T05:42:38.594Z,100505.28
2022-12-04T05:45:27.204Z,100500.63
2022-12-04T05:48:15.786Z,100511.09
2022-12-04T05:51:07.501Z,100507.81
2022-12-04T05:53:57.539Z,100513.28
2022-12-04T05:56:46.155Z,100507.84
2022-12-04T05:59:34.974Z,100501.34
2022-12-04T06:02:23.608Z,100501.53
2022-12-04T06:05:12.318Z,100498.69
2022-12-04T06:08:00.953Z,100494.53
2022-12-04T06:10:50.929Z,100498.69
2022-12-04T06:13:39.509Z,100490.47
2022-12-04T06:16:29.821Z,100501.63
2022-12-04T06:19:19.769Z,100492.97
2022-12-04T06:22:08.395Z,100495.50
2022-12-04T06:24:56.993Z,100496.31
2022-12-04T06:27:47.061Z,100505.28
2022-12-04T06:30:35.824Z,100501.47
2022-12-04T06:33:24.394Z,100505.28
2022-12-04T06:36:14.646Z,100508.59
2022-12-04T06:39:03.265Z,100505.28
2022-12-04T06:41:51.764Z,100501.63
2022-12-04T06:44:41.757Z,100504.28
2022-12-04T06:47:30.375Z,100514.47
2022-12-04T06:50:19.138Z,100520.56
2022-12-04T06:53:08.599Z,100516.50
2022-12-04T06:55:57.949Z,100521.84
2022-12-04T06:58:48.342Z,100519.41
2022-12-04T07:01:38.375Z,100523.88
2022-12-04T07:04:27.014Z,100520.19
2022-12-04T07:07:15.567Z,100525.50
2022-12-04T07:10:04.236Z,100521.66
2022-12-04T07:12:52.824Z,100527.78
2022-12-04T07:15:41.474Z,100519.81
2022-12-04T07:18:31.979Z,100518.88
2022-12-04T07:21:22.644Z,100513.56
2022-12-04T07:24:15.609Z,100521.38
2022-12-04T07:27:04.189Z,100517.22
2022-12-04T07:29:53.498Z,100522.56
2022-12-04T07:32:42.417Z,100516.03
2022-12-04T07:35:32.383Z,100520.09
2022-12-04T07:38:21.012Z,100522.94
2022-12-04T07:41:11.810Z,100522.94
2022-12-04T07:44:00.421Z,100524.59
2022-12-04T07:46:49.137Z,100522.94
2022-12-04T07:49:37.822Z,100512.75
2022-12-04T07:52:27.784Z,100502.91
2022-12-04T07:55:21.612Z,100506.22
2022-12-04T07:58:11.645Z,100500.53
2022-12-04T08:01:07.515Z,100507.13
2022-12-04T08:03:57.859Z,100507.88
2022-12-04T08:06:46.549Z,100504.59
2022-12-04T08:09:36.468Z,100505.94
2022-12-04T08:12:25.162Z,100516.88
2022-12-04T08:15:13.722Z,100511.56
2022-12-04T08:18:02.459Z,100512.81
2022-12-04T08:20:51.046Z,100507.88
2022-12-04T08:23:41.222Z,100506.66
2022-12-04T08:26:33.444Z,100512.44
2022-12-04T08:29:22.132Z,100520.66
2022-12-04T08:32:10.783Z,100520.72
2022-12-04T08:34:59.395Z,100520.06
2022-12-04T08:37:48.251Z,100522.72
2022-12-04T08:40:36.868Z,100510.41
2022-12-04T08:43:26.800Z,100513.47
2022-12-04T08:46:17.855Z,100515.56
2022-12-04T08:49:06.563Z,100510.00
2022-12-04T08:51:55.183Z,100510.50
2022-12-04T08:54:43.758Z,100517.38
2022-12-04T08:57:32.361Z,100518.16
2022-12-04T09:00:23.012Z,100512.81
2022-12-04T09:03:13.653Z,100514.47
2022-12-04T09:06:02.965Z,100512.38
2022-12-04T09:08:54.620Z,100506.66
2022-12-04T09:11:46.649Z,100495.66
2022-12-04T09:14:35.254Z,100502.16
2022-12-04T09:17:25.299Z,100497.22
2022-12-04T09:20:14.961Z,100499.59
2022-12-04T09:23:04.942Z,100498.88
2022-12-04T09:25:54.064Z,100501.72
2022-12-04T09:28:42.678Z,100505.00
2022-12-04T09:31:31.728Z,100502.16
2022-12-04T09:34:21.710Z,100491.13
2022-12-04T09:37:10.287Z,100503.50
2022-12-04T09:39:58.954Z,100499.75
2022-12-04T09:42:50.231Z,100500.56
2022-12-04T09:45:44.268Z,100501.72
2022-12-04T09:48:35.302Z,100493.31
2022-12-04T09:51:26.724Z,100497.44
2022-12-04T09:54:18.313Z,100493.06
2022-12-04T09:57:14.336Z,100494.88
2022-12-04T10:00:04.494Z,100490.66
2022-12-04T10:02:56.567Z,100489.03
2022-12-04T10:05:51.713Z,100485.34
2022-12-04T10:08:43.441Z,100489.16
2022-12-04T10:11:46.217Z,100483.88
2022-12-04T10:14:51.000Z,100479.66
2022-12-04T10:17:49.309Z,100470.78
2022-12-04T10:21:03.657Z,100461.63
2022-12-04T10:24:00.826Z,100462.25
2022-12-04T10:26:50.681Z,100471.53
2022-12-04T10:29:40.739Z,100473.81
2022-12-04T10:32:32.039Z,100471.63
2022-12-04T10:35:22.937Z,100470.41
2022-12-04T10:38:16.750Z,100465.28
2022-12-04T10:41:15.069Z,100464.13
2022-12-04T10:44:04.060Z,100451.38
2022-12-04T10:46:54.480Z,100454.72
2022-12-04T10:49:43.427Z,100448.97
2022-12-04T10:52:31.997Z,100451.09
2022-12-04T10:55:30.464Z,100442.22
2022-12-04T10:58:21.049Z,100445.38
2022-12-04T11:01:12.248Z,100442.72
2022-12-04T11:04:03.820Z,100443.19
2022-12-04T11:06:53.402Z,100451.59
2022-12-04T11:09:43.044Z,100450.38
2022-12-04T11:12:32.895Z,100451.84
2022-12-04T11:15:23.258Z,100451.66
2022-12-04T11:18:17.779Z,100451.81
2022-12-04T11:21:08.300Z,100460.91
2022-12-04T11:23:57.234Z,100452.41
2022-12-04T11:26:48.589Z,100458.78
2022-12-04T11:29:42.787Z,100457.00
2022-12-04T11:32:35.089Z,100445.69
2022-12-04T11:35:26.548Z,100448.75
2022-12-04T11:38:17.073Z,100446.25
2022-12-04T11:41:06.577Z,100445.44
2022-12-04T11:43:59.961Z,100454.19
2022-12-04T11:46:54.588Z,100451.25
2022-12-04T11:49:44.526Z,100449.53
2022-12-04T11:52:48.594Z,100448.13
2022-12-04T11:55:42.713Z,100440.00
2022-12-04T11:58:44.988Z,100439.06
2022-12-04T12:01:42.848Z,100447.00
2022-12-04T12:04:51.284Z,100442.69
2022-12-04T12:07:46.872Z,100438.63
2022-12-04T12:10:44.287Z,100430.75
2022-12-04T12:13:37.446Z,100426.69
2022-12-04T12:16:31.192Z,100424.47
2022-12-04T12:19:38.523Z,100425.22
2022-12-04T12:22:42.605Z,100423.25
2022-12-04T12:25:34.844Z,100415.38
2022-12-04T12:28:34.805Z,100411.91
2022-12-04T12:31:38.127Z,100398.81
2022-12-04T12:34:34.147Z,100409.44
2022-12-04T12:37:25.435Z,100408.66
2022-12-04T12:40:20.071Z,100401.69
2022-12-04T12:43:13.929Z,100396.16
2022-12-04T12:46:06.599Z,100388.28
2022-12-04T12:49:01.225Z,100393.56
2022-12-04T12:51:52.647Z,100390.66
2022-12-04T12:54:44.490Z,100390.75
2022-12-04T12:57:37.657Z,100388.22
2022-12-04T13:00:26.401Z,100384.31
2022-12-04T13:03:28.309Z,100389.41
2022-12-04T13:06:20.184Z,100383.72
2022-12-04T13:09:14.927Z,100382.41
2022-12-04T13:12:08.018Z,100382.13
2022-12-04T13:14:58.034Z,100376.56
2022-12-04T13:17:48.317Z,100374.09
2022-12-04T13:20:43.078Z,100353.16
2022-12-04T13:23:43.234Z,100358.94
2022-12-04T13:26:40.898Z,100359.81
2022-12-04T13:29:42.333Z,100362.28
2022-12-04T13:32:49.629Z,100366.31
2022-12-04T13:36:04.146Z,100363.91
2022-12-04T13:39:09.449Z,100358.38
2022-12-04T13:42:00.066Z,100359.75
2022-12-04T13:44:55.650Z,100361.41
2022-12-04T13:47:45.919Z,100357.69
2022-12-04T13:50:36.138Z,100352.41
2022-12-04T13:53:37.466Z,100359.78
2022-12-04T13:56:29.515Z,100360.78
2022-12-04T13:59:23.954Z,100366.19
2022-12-04T14:02:29.179Z,100357.09
2022-12-04T14:05:27.981Z,100368.94
2022-12-04T14:08:26.199Z,100372.97
2022-12-04T14:11:17.063Z,100371.41
2022-12-04T14:14:08.213Z,100378.09
2022-12-04T14:16:57.982Z,100390.13
2022-12-04T14:19:47.660Z,100380.97
2022-12-04T14:22:45.347Z,100379.34
2022-12-04T14:25:36.600Z,100374.72
2022-12-04T14:28:28.122Z,100383.13
2022-12-04T14:31:25.082Z,100372.81
2022-12-04T14:34:22.764Z,100374.31
2022-12-04T14:37:20.188Z,100373.16
2022-12-04T14:40:47.946Z,100378.41
2022-12-04T14:43:40.595Z,100366.63
2022-12-04T14:46:35.318Z,100371.31
2022-12-04T14:49:33.702Z,100365.47
2022-12-04T14:52:28.013Z,100362.53
2022-12-04T14:55:25.994Z,100366.63
2022-12-04T14:58:31.391Z,100360.47
2022-12-04T15:01:28.389Z,100364.22
2022-12-04T15:04:24.490Z,100354.34
2022-12-04T15:07:18.131Z,100348.50
2022-12-04T15:10:39.523Z,100355.19
2022-12-04T15:13:28.871Z,100349.34
2022-12-04T15:16:20.469Z,100347.34
2022-12-04T15:19:18.078Z,100337.56
2022-12-04T15:22:11.674Z,100344.53
2022-12-04T15:25:00.542Z,100341.09
2022-12-04T15:27:52.868Z,100338.44
2022-12-04T15:30:42.599Z,100337.22
2022-12-04T15:33:37.209Z,100338.88
2022-12-04T15:36:31.199Z,100334.16
2022-12-04T15:39:21.868Z,100335.00
2022-12-04T15:42:19.054Z,100336.84
2022-12-04T15:45:25.176Z,100329.44
2022-12-04T15:48:25.153Z,100326.75
2022-12-04T15:51:14.180Z,100334.34
2022-12-04T15:54:04.266Z,100334.75
2022-12-04T15:57:00.779Z,100327.59
2022-12-04T15:59:51.177Z,100320.19
2022-12-04T16:02:44.097Z,100328.78
2022-12-04T16:05:36.529Z,100324.50
2022-12-04T16:08:27.051Z,100323.66
2022-12-04T16:11:30.930Z,100330.50
2022-12-04T16:14:20.544Z,100329.47
2022-12-04T16:17:11.583Z,100328.66
2022-12-04T16:20:02.595Z,100334.16
2022-12-04T16:22:53.142Z,100329.41
2022-12-04T16:25:41.776Z,100336.22
2022-12-04T16:28:30.398Z,100330.59
2022-12-04T16:31:19.976Z,100329.41
2022-12-04T16:34:08.566Z,100328.59
2022-12-04T16:36:58.617Z,100331.47
2022-12-04T16:39:47.512Z,100326.56
2022-12-04T16:42:36.169Z,100332.72
2022-12-04T16:45:28.078Z,100323.66
2022-12-04T16:48:17.130Z,100329.41
2022-12-04T16:51:05.833Z,100329.00
2022-12-04T16:53:56.316Z,100333.75
2022-12-04T16:56:45.194Z,100333.56
2022-12-04T16:59:33.960Z,100324.50
2022-12-04T17:02:27.585Z,100319.56
2022-12-04T17:05:20.768Z,100326.97
2022-12-04T17:08:09.405Z,100323.47
2022-12-04T17:10:59.386Z,100319.34
2022-12-04T17:13:48.007Z,100319.97
2022-12-04T17:16:37.025Z,100319.75
2022-12-04T17:19:25.709Z,100315.34
2022-12-04T17:22:14.335Z,100314.22
2022-12-04T17:25:03.135Z,100312.50
2022-12-04T17:27:53.410Z,100319.13
2022-12-04T17:30:46.120Z,100321.00
2022-12-04T17:33:34.719Z,100317.13
2022-12-04T17:36:25.154Z,100315.09
2022-12-04T17:39:13.739Z,100314.47
2022-12-04T17:42:02.411Z,100313.66
2022-12-04T17:44:52.394Z,100309.97
2022-12-04T17:47:41.222Z,100314.88
2022-12-04T17:50:29.822Z,100314.69
2022-12-04T17:53:18.493Z,100305.84
2022-12-04T17:56:08.839Z,100310.16
2022-12-04T17:58:57.644Z,100311.38
2022-12-04T18:01:47.758Z,100315.03
2022-12-04T18:04:36.427Z,100308.47
2022-12-04T18:07:25.041Z,100310.09
2022-12-04T18:10:13.597Z,100312.13
2022-12-04T18:13:02.212Z,100312.09
2022-12-04T18:15:50.840Z,100314.13
2022-12-04T18:18:40.978Z,100312.50
2022-12-04T18:21:30.559Z,100319.25
2022-12-04T18:24:19.523Z,100307.97
2022-12-04T18:27:09.110Z,100305.75
2022-12-04T18:29:57.936Z,100302.88
2022-12-04T18:32:47.963Z,100300.84
2022-12-04T18:35:37.836Z,100308.47
2022-12-04T18:38:27.889Z,100309.69
2022-12-04T18:41:17.636Z,100300.44
2022-12-04T18:44:06.437Z,100306.81
2022-12-04T18:46:55.048Z,100304.16
2022-12-04T18:49:43.705Z,100303.53
2022-12-04T18:52:38.356Z,100310.91
2022-12-04T18:55:26.924Z,100308.03
2022-12-04T18:58:15.546Z,100308.16
2022-12-04T19:01:06.769Z,100303.22
2022-12-04T19:03:57.915Z,100304.22
2022-12-04T19:06:50.171Z,100309.91
2022-12-04T19:12:48.780Z,100306.94
2022-12-04T19:15:43.788Z,100301.00
2022-12-04T19:18:32.961Z,100306.78
2022-12-04T19:21:21.559Z,100299.34
2022-12-04T19:24:11.458Z,100309.19
2022-12-04T19:27:01.819Z,100307.97
2022-12-04T19:29:50.432Z,100314.53
2022-12-04T19:32:39.065Z,100308.97
2022-12-04T19:35:27.674Z,100313.31
2022-12-04T19:38:16.414Z,100314.50
2022-12-04T19:41:08.156Z,100312.66
2022-12-04T19:43:59.806Z,100311.84
2022-12-04T19:46:48.600Z,100307.53
2022-12-04T19:49:37.171Z,100310.31
2022-12-04T19:52:25.763Z,100308.72
2022-12-04T19:55:14.365Z,100305.38
2022-12-04T19:58:02.976Z,100299.09
2022-12-04T20:00:56.495Z,100308.75
2022-12-04T20:03:45.444Z,100309.78
2022-12-04T20:06:37.793Z,100311.22
2022-12-04T20:09:27.357Z,100313.41
2022-12-04T20:12:15.948Z,100315.66
2022-12-04T20:15:04.575Z,100317.69
2022-12-04T20:17:54.561Z,100314.22
2022-12-04T20:20:45.673Z,100311.84
2022-12-04T20:23:34.223Z,100308.88
2022-12-04T20:26:25.081Z,100312.34
2022-12-04T20:29:15.192Z,100319.75
2022-12-04T20:32:03.749Z,100312.78
2022-12-04T20:34:53.752Z,100309.09
2022-12-04T20:37:42.352Z,100311.56
2022-12-04T20:40:30.980Z,100317.09
2022-12-04T20:43:19.563Z,100310.31
2022-12-04T20:46:15.359Z,100307.41
2022-12-04T20:49:05.749Z,100301.69
2022-12-04T20:51:55.757Z,100310.28
2022-12-04T20:54:44.417Z,100312.72
2022-12-04T20:57:34.568Z,100309.41
2022-12-04T21:00:23.436Z,100298.31
2022-12-04T21:03:12.133Z,100302.03
2022-12-04T21:06:00.720Z,100293.41
2022-12-04T21:08:54.603Z,100290.91
2022-12-04T21:11:45.149Z,100293.78
2022-12-04T21:14:51.696Z,100293.44
2022-12-04T21:17:40.544Z,100291.13
2022-12-04T21:20:29.089Z,100283.59
2022-12-04T21:23:17.681Z,100293.03
2022-12-04T21:26:08.044Z,100281.47
2022-12-04T21:28:57.105Z,100288.06
2022-12-04T21:31:48.582Z,100276.56
2022-12-04T21:34:38.141Z,100279.88
2022-12-04T21:37:26.853Z,100274.78
2022-12-04T21:40:15.500Z,100266.88
2022-12-04T21:43:05.504Z,100265.69
2022-12-04T21:46:07.443Z,100262.84
2022-12-04T21:48:57.728Z,100262.47
2022-12-04T21:52:01.811Z,100253.81
2022-12-04T21:54:51.796Z,100253.22
2022-12-04T21:57:40.870Z,100259.69
2022-12-04T22:00:30.842Z,100258.22
2022-12-04T22:03:20.035Z,100266.41
2022-12-04T22:06:09.229Z,100258.94
2022-12-04T22:08:57.835Z,100260.13
2022-12-04T22:11:46.943Z,100261.78
2022-12-04T22:14:35.543Z,100263.19
2022-12-04T22:17:25.534Z,100274.28
2022-12-04T22:20:14.110Z,100270.53
2022-12-04T22:23:03.153Z,100257.59
2022-12-04T22:25:51.764Z,100253.66
2022-12-04T22:28:40.599Z,100258.38
2022-12-04T22:31:30.619Z,100263.28
2022-12-04T22:34:20.619Z,100264.13
2022-12-04T22:37:09.325Z,100266.78
2022-12-04T22:39:58.297Z,100271.66
2022-12-04T22:42:47.094Z,100273.28
2022-12-04T22:45:35.648Z,100269.41
2022-12-04T22:48:24.467Z,100261.59
2022-12-04T22:51:16.544Z,100266.88
2022-12-04T22:54:06.384Z,100254.75
2022-12-04T22:56:55.128Z,100252.88
2022-12-04T22:59:43.800Z,100257.19
2022-12-04T23:02:32.456Z,100250.22
2022-12-04T23:05:21.185Z,100257.19
2022-12-04T23:08:11.351Z,100247.75
2022-12-04T23:11:04.541Z,100260.47
2022-12-04T23:13:54.577Z,100261.91
2022-12-04T23:16:43.287Z,100265.38
2022-12-04T23:19:32.555Z,100261.91
2022-12-04T23:22:21.175Z,100261.47
2022-12-04T23:25:11.628Z,100256.97
2022-12-04T23:28:00.250Z,100257.31
2022-12-04T23:30:48.829Z,100258.16
2022-12-04T23:33:37.720Z,100245.84
2022-12-04T23:36:26.832Z,100247.06
2022-12-04T23:39:15.447Z,100239.69
2022-12-04T23:42:05.596Z,100244.19
2022-12-04T23:44:54.209Z,100245.41
2022-12-04T23:47:43.548Z,100247.06
2022-12-04T23:50:32.410Z,100251.34
2022-12-04T23:53:21.104Z,100263.03
2022-12-04T23:56:12.560Z,100258.50
2022-12-04T23:59:02.517Z,100258.50
